createdAt,value
2023-03-19T00:03:11.903Z,10.57
2023-03-19T00:10:21.313Z,11.63
2023-03-19T00:13:42.736Z,10.07
2023-03-19T00:20:49.361Z,11.13
2023-03-19T00:24:11.848Z,10.57
2023-03-19T00:27:34.476Z,9.60
2023-03-19T00:31:21.765Z,10.77
2023-03-19T00:34:44.365Z,10.90
2023-03-19T00:38:05.802Z,10.50
2023-03-19T00:41:27.535Z,10.80
2023-03-19T00:44:50.733Z,11.07
2023-03-19T00:48:12.614Z,10.20
2023-03-19T00:51:34.224Z,9.63
2023-03-19T00:54:55.684Z,10.27
2023-03-19T00:58:17.546Z,9.83
2023-03-19T01:01:40.776Z,10.33
2023-03-19T01:05:02.556Z,10.50
2023-03-19T01:08:24.383Z,10.37
2023-03-19T01:11:46.182Z,10.43
2023-03-19T01:15:09.601Z,10.87
2023-03-19T01:18:32.718Z,11.03
2023-03-19T01:21:54.281Z,10.77
2023-03-19T01:25:16.947Z,10.70
2023-03-19T01:28:50.416Z,10.57
2023-03-19T01:32:14.828Z,10.63
2023-03-19T01:35:57.999Z,12.20
2023-03-19T01:39:21.908Z,14.60
2023-03-19T01:42:55.606Z,16.70
2023-03-19T01:46:39.465Z,18.07
2023-03-19T01:50:27.195Z,14.73
2023-03-19T01:54:10.632Z,15.20
2023-03-19T01:57:42.104Z,14.60
2023-03-19T02:01:04.226Z,14.23
2023-03-19T02:04:28.862Z,13.13
2023-03-19T02:07:50.700Z,13.40
2023-03-19T02:11:13.733Z,10.40
2023-03-19T02:14:35.534Z,10.27
2023-03-19T02:17:57.244Z,10.30
2023-03-19T02:21:21.511Z,8.90
2023-03-19T02:24:52.783Z,10.03
2023-03-19T02:28:20.183Z,11.30
2023-03-19T02:31:43.291Z,10.93
2023-03-19T02:35:05.409Z,12.83
2023-03-19T02:38:28.180Z,14.03
2023-03-19T02:41:52.990Z,14.00
2023-03-19T02:45:17.019Z,14.37
2023-03-19T02:48:39.585Z,16.00
2023-03-19T02:52:01.125Z,16.57
2023-03-19T02:55:22.990Z,15.03
2023-03-19T02:58:44.795Z,15.13
2023-03-19T03:02:08.250Z,15.57
2023-03-19T03:05:29.577Z,15.93
2023-03-19T03:08:50.756Z,15.43
2023-03-19T03:12:12.304Z,15.87
2023-03-19T03:15:33.790Z,16.03
2023-03-19T03:18:57.037Z,16.90
2023-03-19T03:22:18.896Z,17.33
2023-03-19T03:25:41.254Z,16.13
2023-03-19T03:29:02.952Z,15.97
2023-03-19T03:32:25.216Z,14.80
2023-03-19T03:35:48.349Z,15.77
2023-03-19T03:39:09.992Z,15.93
2023-03-19T03:42:31.050Z,15.27
2023-03-19T03:45:53.491Z,15.60
2023-03-19T03:49:15.483Z,15.30
2023-03-19T03:52:38.676Z,15.77
2023-03-19T03:56:00.216Z,16.07
2023-03-19T03:59:24.310Z,16.13
2023-03-19T04:02:45.929Z,15.87
2023-03-19T04:06:14.513Z,15.10
2023-03-19T04:09:37.594Z,15.63
2023-03-19T04:12:59.336Z,15.60
2023-03-19T04:16:22.669Z,16.67
2023-03-19T04:19:44.355Z,16.43
2023-03-19T04:23:06.116Z,15.30
2023-03-19T04:26:29.191Z,15.87
2023-03-19T04:29:51.103Z,15.37
2023-03-19T04:33:13.392Z,16.10
2023-03-19T04:36:35.075Z,15.83
2023-03-19T04:39:56.921Z,15.67
2023-03-19T04:43:20.097Z,15.53
2023-03-19T04:46:42.106Z,16.17
2023-03-19T04:50:03.441Z,15.17
2023-03-19T04:53:28.396Z,15.40
2023-03-19T04:56:50.200Z,15.30
2023-03-19T05:00:16.192Z,15.30
2023-03-19T05:03:39.379Z,15.30
2023-03-19T05:07:01.073Z,14.57
2023-03-19T05:10:24.063Z,15.63
2023-03-19T05:13:46.050Z,16.27
2023-03-19T05:17:11.164Z,15.90
2023-03-19T05:20:48.730Z,15.43
2023-03-19T05:24:13.348Z,14.50
2023-03-19T05:27:35.284Z,15.87
2023-03-19T05:30:59.884Z,15.47
2023-03-19T05:34:31.015Z,15.73
2023-03-19T05:37:52.814Z,16.77
2023-03-19T05:41:14.952Z,16.83
2023-03-19T05:44:47.148Z,15.50
2023-03-19T05:48:17.202Z,15.83
2023-03-19T05:51:41.159Z,15.50
2023-03-19T05:55:04.631Z,15.87
2023-03-19T05:58:32.141Z,15.73
2023-03-19T06:01:53.926Z,15.20
2023-03-19T06:05:15.860Z,16.13
2023-03-19T06:08:39.190Z,16.20
2023-03-19T06:12:20.676Z,16.67
2023-03-19T06:16:03.220Z,15.23
2023-03-19T06:19:28.417Z,15.70
2023-03-19T06:22:50.092Z,14.50
2023-03-19T06:26:13.329Z,13.97
2023-03-19T06:29:43.113Z,13.43
2023-03-19T06:33:19.568Z,13.30
2023-03-19T06:36:41.425Z,13.43
2023-03-19T06:40:06.045Z,13.07
2023-03-19T06:43:28.673Z,13.37
2023-03-19T06:46:50.809Z,13.20
2023-03-19T06:50:13.241Z,13.93
2023-03-19T06:53:34.971Z,19.43
2023-03-19T06:56:56.700Z,21.07
2023-03-19T07:00:20.783Z,18.37
2023-03-19T07:03:42.308Z,17.10
2023-03-19T07:07:05.869Z,18.47
2023-03-19T07:10:27.767Z,17.77
2023-03-19T07:13:49.054Z,17.47
2023-03-19T07:17:12.104Z,18.03
2023-03-19T07:20:34.582Z,16.90
2023-03-19T07:23:56.008Z,17.10
2023-03-19T07:27:17.810Z,16.73
2023-03-19T07:30:39.689Z,16.90
2023-03-19T07:34:02.625Z,17.83
2023-03-19T07:37:24.423Z,13.33
2023-03-19T07:41:00.964Z,15.17
2023-03-19T07:44:23.620Z,14.43
2023-03-19T07:47:44.862Z,15.73
2023-03-19T07:51:08.318Z,18.03
2023-03-19T07:54:31.306Z,16.20
2023-03-19T07:57:52.865Z,15.33
2023-03-19T08:01:14.810Z,15.10
2023-03-19T08:04:37.229Z,15.80
2023-03-19T08:08:00.152Z,15.60
2023-03-19T08:11:21.797Z,15.90
2023-03-19T08:14:43.605Z,15.63
2023-03-19T08:18:07.625Z,18.97
2023-03-19T08:21:29.794Z,17.57
2023-03-19T08:24:52.879Z,18.07
2023-03-19T08:28:14.314Z,15.20
2023-03-19T08:31:35.596Z,14.97
2023-03-19T08:34:57.197Z,14.30
2023-03-19T08:38:18.473Z,13.70
2023-03-19T08:41:41.348Z,13.50
2023-03-19T08:45:02.775Z,14.00
2023-03-19T08:48:24.438Z,14.47
2023-03-19T08:51:46.171Z,23.67
2023-03-19T08:55:09.294Z,15.60
2023-03-19T08:58:32.344Z,14.23
2023-03-19T09:01:54.743Z,14.03
2023-03-19T09:05:16.484Z,13.70
2023-03-19T09:08:38.469Z,12.63
2023-03-19T09:12:00.732Z,12.67
2023-03-19T09:15:23.664Z,14.30
2023-03-19T09:18:45.433Z,13.93
2023-03-19T09:22:07.137Z,13.10
2023-03-19T09:25:28.870Z,13.50
2023-03-19T09:28:51.682Z,12.83
2023-03-19T09:32:14.698Z,12.50
2023-03-19T09:35:38.604Z,12.97
2023-03-19T09:38:59.992Z,11.50
2023-03-19T09:42:38.104Z,12.57
2023-03-19T09:46:04.778Z,12.73
2023-03-19T09:49:32.522Z,9.47
2023-03-19T09:52:59.769Z,8.00
2023-03-19T09:56:21.277Z,8.13
2023-03-19T09:59:43.489Z,7.93
2023-03-19T10:03:13.270Z,7.87
2023-03-19T10:06:39.815Z,8.48
2023-03-19T10:10:21.931Z,10.23
2023-03-19T10:13:54.653Z,8.85
2023-03-19T10:17:20.545Z,7.28
2023-03-19T10:20:56.746Z,9.07
2023-03-19T10:24:23.887Z,8.20
2023-03-19T10:27:47.761Z,7.83
2023-03-19T10:31:26.994Z,8.48
2023-03-19T10:34:50.380Z,7.63
2023-03-19T10:38:21.265Z,7.78
2023-03-19T10:41:51.286Z,7.05
2023-03-19T10:45:22.308Z,5.68
2023-03-19T10:48:46.746Z,6.30
2023-03-19T10:52:18.188Z,5.90
2023-03-19T10:55:40.975Z,6.55
2023-03-19T10:59:05.731Z,6.00
2023-03-19T11:02:31.078Z,7.25
2023-03-19T11:06:06.438Z,7.40
2023-03-19T11:09:34.861Z,7.63
2023-03-19T11:12:59.052Z,7.80
2023-03-19T11:16:22.126Z,7.90
2023-03-19T11:19:52.202Z,7.65
2023-03-19T11:23:17.580Z,6.70
2023-03-19T11:26:39.103Z,8.23
2023-03-19T11:30:00.891Z,7.75
2023-03-19T11:34:08.148Z,8.05
2023-03-19T11:37:38.937Z,6.70
2023-03-19T11:41:11.854Z,7.72
2023-03-19T11:44:43.565Z,7.38
2023-03-19T11:48:24.442Z,6.95
2023-03-19T11:51:52.321Z,6.45
2023-03-19T11:55:22.354Z,6.55
2023-03-19T11:59:05.165Z,8.20
2023-03-19T12:03:00.377Z,7.25
2023-03-19T12:06:35.079Z,6.55
2023-03-19T12:10:24.309Z,5.50
2023-03-19T12:14:06.640Z,5.45
2023-03-19T12:17:45.855Z,4.57
2023-03-19T12:21:13.550Z,4.40
2023-03-19T12:24:50.839Z,4.20
2023-03-19T12:28:20.093Z,5.75
2023-03-19T12:31:51.837Z,6.20
2023-03-19T12:35:17.914Z,4.20
2023-03-19T12:38:42.735Z,6.95
2023-03-19T12:42:07.571Z,8.00
2023-03-19T12:45:36.143Z,5.78
2023-03-19T12:49:02.082Z,8.88
2023-03-19T12:52:28.064Z,7.40
2023-03-19T12:55:55.612Z,6.70
2023-03-19T12:59:25.600Z,6.22
2023-03-19T13:02:55.951Z,9.23
2023-03-19T13:06:21.995Z,12.13
2023-03-19T13:09:50.142Z,8.00
2023-03-19T13:13:27.619Z,10.02
2023-03-19T13:16:56.739Z,7.85
2023-03-19T13:20:25.795Z,6.50
2023-03-19T13:23:51.009Z,7.35
2023-03-19T13:27:16.970Z,7.20
2023-03-19T13:30:40.175Z,9.60
2023-03-19T13:34:04.142Z,5.70
2023-03-19T13:37:28.739Z,5.20
2023-03-19T13:40:52.304Z,5.57
2023-03-19T13:44:40.958Z,5.40
2023-03-19T13:48:24.936Z,5.57
2023-03-19T13:51:48.941Z,5.22
2023-03-19T13:55:34.413Z,4.72
2023-03-19T13:59:24.180Z,4.57
2023-03-19T14:02:54.124Z,5.40
2023-03-19T14:06:35.929Z,5.13
2023-03-19T14:10:08.621Z,4.15
2023-03-19T14:13:36.190Z,5.03
2023-03-19T14:16:57.996Z,4.60
2023-03-19T14:20:32.956Z,4.82
2023-03-19T14:28:11.814Z,4.90
2023-03-19T14:31:42.732Z,4.65
2023-03-19T14:35:06.903Z,4.63
2023-03-19T14:38:37.450Z,4.70
2023-03-19T14:42:04.377Z,4.32
2023-03-19T14:45:44.041Z,5.00
2023-03-19T14:49:35.706Z,4.82
2023-03-19T14:53:02.657Z,4.35
2023-03-19T14:56:27.818Z,4.63
2023-03-19T14:59:50.726Z,4.80
2023-03-19T15:03:23.300Z,6.18
2023-03-19T15:06:53.067Z,5.72
2023-03-19T15:10:18.696Z,5.80
2023-03-19T15:13:59.412Z,5.45
2023-03-19T15:17:25.739Z,5.47
2023-03-19T15:20:54.300Z,6.20
2023-03-19T15:24:18.440Z,5.50
2023-03-19T15:27:40.471Z,6.70
2023-03-19T15:31:21.878Z,7.30
2023-03-19T15:34:46.584Z,7.20
2023-03-19T15:38:10.661Z,7.38
2023-03-19T15:41:36.756Z,6.20
2023-03-19T15:45:04.228Z,6.40
2023-03-19T15:48:28.830Z,6.32
2023-03-19T15:51:55.802Z,6.22
2023-03-19T15:55:18.387Z,5.80
2023-03-19T15:58:43.592Z,5.90
2023-03-19T16:02:17.828Z,6.40
2023-03-19T16:05:39.883Z,7.32
2023-03-19T16:09:18.200Z,6.80
2023-03-19T16:12:41.695Z,6.57
2023-03-19T16:16:08.622Z,7.32
2023-03-19T16:19:33.259Z,7.35
2023-03-19T16:22:58.609Z,7.32
2023-03-19T16:26:24.168Z,6.38
2023-03-19T16:29:47.748Z,7.05
2023-03-19T16:33:15.652Z,7.45
2023-03-19T16:36:37.196Z,7.13
2023-03-19T16:40:01.558Z,6.88
2023-03-19T16:43:25.631Z,6.88
2023-03-19T16:46:47.012Z,7.28
2023-03-19T16:50:11.775Z,6.65
2023-03-19T16:53:33.843Z,7.82
2023-03-19T16:56:55.439Z,8.55
2023-03-19T17:00:18.163Z,7.75
2023-03-19T17:03:40.059Z,7.22
2023-03-19T17:07:03.343Z,6.88
2023-03-19T17:10:28.073Z,6.07
2023-03-19T17:13:49.440Z,6.00
2023-03-19T17:17:18.785Z,11.20
2023-03-19T17:20:47.690Z,9.15
2023-03-19T17:24:23.084Z,9.30
2023-03-19T17:27:45.725Z,11.68
2023-03-19T17:31:20.375Z,7.93
2023-03-19T17:34:43.318Z,9.25
2023-03-19T17:38:05.383Z,8.88
2023-03-19T17:41:31.376Z,7.38
2023-03-19T17:44:56.877Z,6.13
2023-03-19T17:48:21.795Z,6.35
2023-03-19T17:51:44.202Z,6.47
2023-03-19T17:55:18.764Z,6.45
2023-03-19T17:58:41.913Z,6.75
2023-03-19T18:02:03.150Z,6.20
2023-03-19T18:05:26.749Z,6.80
2023-03-19T18:08:48.263Z,6.60
2023-03-19T18:12:10.205Z,6.53
2023-03-19T18:15:34.469Z,6.18
2023-03-19T18:18:59.440Z,8.35
2023-03-19T18:22:21.609Z,8.40
2023-03-19T18:25:43.687Z,14.30
2023-03-19T18:29:05.659Z,14.35
2023-03-19T18:32:32.963Z,30.30
2023-03-19T18:35:55.477Z,29.02
2023-03-19T18:39:17.683Z,25.17
2023-03-19T18:42:39.219Z,36.42
2023-03-19T18:46:01.186Z,25.58
2023-03-19T18:49:26.115Z,14.05
2023-03-19T18:52:48.411Z,10.77
2023-03-19T18:56:21.560Z,9.93
2023-03-19T18:59:43.636Z,8.07
2023-03-19T19:03:06.516Z,8.15
2023-03-19T19:06:46.421Z,12.30
2023-03-19T19:10:10.426Z,9.60
2023-03-19T19:13:46.214Z,9.15
2023-03-19T19:17:18.206Z,9.40
2023-03-19T19:20:40.037Z,8.75
2023-03-19T19:24:03.461Z,7.72
2023-03-19T19:27:26.906Z,8.27
2023-03-19T19:30:49.919Z,7.72
2023-03-19T19:34:13.845Z,7.57
2023-03-19T19:37:36.226Z,7.47
2023-03-19T19:41:00.635Z,16.77
2023-03-19T19:44:23.652Z,16.15
2023-03-19T19:47:45.360Z,8.20
2023-03-19T19:51:08.105Z,6.68
2023-03-19T19:54:29.627Z,7.20
2023-03-19T19:57:54.066Z,6.63
2023-03-19T20:01:17.736Z,6.60
2023-03-19T20:04:39.438Z,6.13
2023-03-19T20:08:03.069Z,6.97
2023-03-19T20:11:26.037Z,6.13
2023-03-19T20:14:49.893Z,6.95
2023-03-19T20:18:16.765Z,6.32
2023-03-19T20:21:39.087Z,6.40
2023-03-19T20:25:00.692Z,6.72
2023-03-19T20:28:24.202Z,6.43
2023-03-19T20:31:47.894Z,6.10
2023-03-19T20:35:17.946Z,6.50
2023-03-19T20:38:39.882Z,5.70
2023-03-19T20:42:01.609Z,6.47
2023-03-19T20:45:25.701Z,6.10
2023-03-19T20:48:49.023Z,5.85
2023-03-19T20:52:11.964Z,6.20
2023-03-19T20:55:36.158Z,5.53
2023-03-19T20:58:58.202Z,5.97
2023-03-19T21:02:21.961Z,6.53
2023-03-19T21:05:45.177Z,6.00
2023-03-19T21:09:06.836Z,6.23
2023-03-19T21:12:31.272Z,6.90
2023-03-19T21:15:53.976Z,11.43
2023-03-19T21:19:15.837Z,7.82
2023-03-19T21:22:38.649Z,6.60
2023-03-19T21:26:01.345Z,6.13
2023-03-19T21:29:33.155Z,6.23
2023-03-19T21:32:57.007Z,6.17
2023-03-19T21:36:19.173Z,6.63
2023-03-19T21:39:42.828Z,6.33
2023-03-19T21:43:05.635Z,6.93
2023-03-19T21:46:30.285Z,6.83
2023-03-19T21:49:51.684Z,7.20
2023-03-19T21:53:12.993Z,7.60
2023-03-19T21:56:39.774Z,8.07
2023-03-19T22:00:01.316Z,7.20
2023-03-19T22:03:23.062Z,7.40
2023-03-19T22:06:44.414Z,7.77
2023-03-19T22:10:06.854Z,9.50
2023-03-19T22:13:34.019Z,10.20
2023-03-19T22:16:57.228Z,9.37
2023-03-19T22:20:21.056Z,10.50
2023-03-19T22:23:42.647Z,10.60
2023-03-19T22:27:04.789Z,12.37
2023-03-19T22:30:35.666Z,12.83
2023-03-19T22:33:57.831Z,14.30
2023-03-19T22:37:26.783Z,12.50
2023-03-19T22:40:50.178Z,17.73
2023-03-19T22:44:17.482Z,14.43
2023-03-19T22:47:40.346Z,19.10
2023-03-19T22:51:02.608Z,17.17
2023-03-19T22:54:24.286Z,17.53
2023-03-19T22:57:45.800Z,17.50
2023-03-19T23:01:28.917Z,17.80
2023-03-19T23:04:51.717Z,14.73
2023-03-19T23:08:17.685Z,14.37
2023-03-19T23:11:39.468Z,12.70
2023-03-19T23:15:01.384Z,12.57
2023-03-19T23:18:27.495Z,13.93
2023-03-19T23:21:50.740Z,13.53
2023-03-19T23:25:17.112Z,9.93
2023-03-19T23:28:38.672Z,8.40
2023-03-19T23:32:00.654Z,8.00
2023-03-19T23:35:24.226Z,7.73
2023-03-19T23:39:02.277Z,7.77
2023-03-19T23:42:28.610Z,8.40
2023-03-19T23:45:52.643Z,8.07
2023-03-19T23:49:14.821Z,8.63
2023-03-19T23:52:36.678Z,8.60
2023-03-19T23:56:02.936Z,8.83
2023-03-19T23:59:24.656Z,7.90
